Time;durP1;ratioP1;P1;durP2;ratioP2;P2;SDS_P1;SDS_P2;PMS_P1;PMS_P2;Temp;Humidity;BMP_temperature;BMP_pressure;BME280_temperature;BME280_humidity;BME280_pressure;Samples;Min_cycle;Max_cycle;Signal;HPM_P1;HPM_P2
2022/02/12 00:00:14;;;;;;;4.67;3.63;;;3.90;99.90;;;;;;5050005;28;20549;-58
2022/02/12 00:02:41;;;;;;;6.90;3.53;;;3.80;99.90;;;;;;5060565;28;20178;-58
2022/02/12 00:05:08;;;;;;;5.28;3.53;;;3.80;99.90;;;;;;5049794;28;20196;-57
2022/02/12 00:07:34;;;;;;;7.03;3.67;;;3.70;99.90;;;;;;5049643;28;20202;-58
2022/02/12 00:09:59;;;;;;;5.50;3.28;;;3.80;99.90;;;;;;5054788;28;20232;-57
2022/02/12 00:12:25;;;;;;;4.93;3.13;;;3.70;99.90;;;;;;5050586;28;20218;-58
2022/02/12 00:14:51;;;;;;;7.33;3.20;;;3.60;99.90;;;;;;5064077;28;20202;-59
2022/02/12 00:17:16;;;;;;;3.30;3.00;;;3.60;99.90;;;;;;5049247;28;20228;-58
2022/02/12 00:19:42;;;;;;;5.10;2.70;;;3.60;99.90;;;;;;5049830;28;20190;-59
2022/02/12 00:22:08;;;;;;;3.93;2.90;;;3.50;99.90;;;;;;5049199;28;20185;-58
2022/02/12 00:24:34;;;;;;;6.40;2.70;;;3.50;99.90;;;;;;5050202;28;20431;-58
2022/02/12 00:26:59;;;;;;;4.77;2.70;;;3.40;99.90;;;;;;5049758;28;20468;-55
2022/02/12 00:29:25;;;;;;;5.10;2.63;;;3.30;99.90;;;;;;5050047;28;20181;-57
2022/02/12 00:31:50;;;;;;;4.73;2.67;;;3.20;99.90;;;;;;5048753;28;20264;-58
2022/02/12 00:34:16;;;;;;;5.77;2.80;;;3.00;99.90;;;;;;5049132;28;20182;-54
2022/02/12 00:36:41;;;;;;;3.97;2.87;;;2.90;99.90;;;;;;5049267;28;20214;-57
2022/02/12 00:39:09;;;;;;;3.37;2.70;;;2.80;99.90;;;;;;5048013;28;20186;-58
2022/02/12 00:41:34;;;;;;;6.40;3.08;;;2.70;99.90;;;;;;5049566;28;20549;-59
2022/02/12 00:44:00;;;;;;;4.20;2.63;;;2.60;99.90;;;;;;5049279;28;20275;-59
2022/02/12 00:46:27;;;;;;;5.30;2.67;;;2.50;99.90;;;;;;5049682;28;20429;-58
2022/02/12 00:48:53;;;;;;;4.55;2.70;;;2.50;99.90;;;;;;5050149;28;20178;-60
2022/02/12 00:51:18;;;;;;;4.03;2.50;;;2.40;99.90;;;;;;5049123;28;20182;-59
2022/02/12 00:53:44;;;;;;;3.90;2.53;;;2.40;99.90;;;;;;5050245;28;20222;-60
2022/02/12 00:56:09;;;;;;;4.63;2.20;;;2.40;99.90;;;;;;5062294;28;20261;-60
2022/02/12 00:58:35;;;;;;;5.83;3.17;;;2.30;99.90;;;;;;5052996;28;20199;-53
2022/02/12 01:01:00;;;;;;;5.00;2.43;;;2.30;99.90;;;;;;5064367;28;20178;-59
2022/02/12 01:03:26;;;;;;;4.03;2.40;;;2.20;99.90;;;;;;5060622;28;20196;-57
2022/02/12 01:05:52;;;;;;;6.30;2.40;;;2.20;99.90;;;;;;5039390;28;20228;-58
2022/02/12 01:08:17;;;;;;;4.27;2.77;;;2.20;99.90;;;;;;5049449;28;20199;-58
2022/02/12 01:10:43;;;;;;;4.27;2.80;;;2.20;99.90;;;;;;5054765;28;20171;-56
2022/02/12 01:13:09;;;;;;;4.07;2.27;;;2.20;99.90;;;;;;5053006;28;20182;-58
2022/02/12 01:15:35;;;;;;;3.60;2.58;;;2.20;99.90;;;;;;5056260;28;20181;-59
2022/02/12 01:18:01;;;;;;;6.67;3.10;;;2.20;99.90;;;;;;5062882;28;20225;-59
2022/02/12 01:20:27;;;;;;;7.45;2.80;;;2.20;99.90;;;;;;5057822;28;20202;-59
2022/02/12 01:22:53;;;;;;;5.53;3.00;;;2.10;99.90;;;;;;5052672;28;20244;-57
2022/02/12 01:25:19;;;;;;;4.33;2.60;;;2.20;99.90;;;;;;5057301;28;20322;-57
2022/02/12 01:27:45;;;;;;;4.03;2.80;;;2.10;99.90;;;;;;5052701;28;20460;-58
2022/02/12 01:30:11;;;;;;;4.40;3.07;;;2.10;99.90;;;;;;5053366;28;20198;-57
2022/02/12 01:32:37;;;;;;;5.70;3.00;;;2.10;99.90;;;;;;5055434;28;20183;-57
2022/02/12 01:35:04;;;;;;;4.95;2.60;;;2.10;99.90;;;;;;5053028;28;20182;-58
2022/02/12 01:37:29;;;;;;;3.30;2.40;;;2.00;99.90;;;;;;5055622;28;20235;-57
2022/02/12 01:39:55;;;;;;;4.10;2.93;;;1.90;99.90;;;;;;5053555;28;20190;-56
2022/02/12 01:42:21;;;;;;;5.50;2.90;;;2.00;99.90;;;;;;5051893;28;20182;-57
2022/02/12 01:44:46;;;;;;;3.30;2.17;;;1.90;99.90;;;;;;5052270;28;20182;-56
2022/02/12 01:47:12;;;;;;;3.80;2.60;;;1.80;99.90;;;;;;5052996;28;20684;-57
2022/02/12 01:49:40;;;;;;;7.20;3.03;;;1.80;99.90;;;;;;5053226;28;20206;-56
2022/02/12 01:52:08;;;;;;;8.63;3.10;;;1.70;99.90;;;;;;5051814;28;20567;-56
2022/02/12 01:54:34;;;;;;;5.15;2.80;;;1.70;99.90;;;;;;5051496;28;21024;-56
2022/02/12 01:57:01;;;;;;;3.23;2.37;;;1.70;99.90;;;;;;5053426;28;20191;-59
2022/02/12 01:59:27;;;;;;;4.70;2.55;;;1.70;99.90;;;;;;5060770;28;20443;-56
2022/02/12 02:01:54;;;;;;;4.13;2.33;;;1.60;99.90;;;;;;5054071;28;20194;-57
2022/02/12 02:04:20;;;;;;;3.33;2.80;;;1.60;99.90;;;;;;5061955;28;20444;-58
2022/02/12 02:06:47;;;;;;;3.30;2.28;;;1.60;99.90;;;;;;5059084;28;20281;-57
2022/02/12 02:09:14;;;;;;;3.83;2.60;;;1.60;99.90;;;;;;5046209;28;20190;-59
2022/02/12 02:11:40;;;;;;;2.95;2.50;;;1.50;99.90;;;;;;5053558;28;20196;-58
2022/02/12 02:14:06;;;;;;;3.53;2.20;;;1.40;99.90;;;;;;5050714;28;20171;-57
2022/02/12 02:16:31;;;;;;;3.70;2.50;;;1.30;99.90;;;;;;5052217;28;20539;-58
2022/02/12 02:18:57;;;;;;;4.40;2.10;;;1.30;99.90;;;;;;5051192;28;20171;-58
2022/02/12 02:21:26;;;;;;;5.93;2.73;;;1.30;99.90;;;;;;5051987;28;20939;-56
2022/02/12 02:23:53;;;;;;;6.53;2.53;;;1.30;99.90;;;;;;5060768;28;20243;-58
2022/02/12 02:26:19;;;;;;;4.03;2.67;;;1.20;99.90;;;;;;5054419;28;20217;-58
2022/02/12 02:28:45;;;;;;;3.55;2.45;;;1.10;99.90;;;;;;5051642;28;20572;-59
2022/02/12 02:31:11;;;;;;;4.13;2.22;;;1.00;99.90;;;;;;5052042;28;20239;-59
2022/02/12 02:33:36;;;;;;;4.27;3.13;;;1.00;99.90;;;;;;5054437;28;20265;-57
2022/02/12 02:36:02;;;;;;;5.87;2.67;;;0.90;99.90;;;;;;5056872;28;20184;-58
2022/02/12 02:38:28;;;;;;;6.00;2.90;;;0.80;99.90;;;;;;5052616;28;20190;-58
2022/02/12 02:40:54;;;;;;;4.00;2.70;;;0.60;99.90;;;;;;5058028;28;20189;-59
2022/02/12 02:43:21;;;;;;;3.67;2.15;;;0.60;99.90;;;;;;5054808;28;21053;-58
2022/02/12 02:45:47;;;;;;;8.07;3.17;;;0.50;99.90;;;;;;5054179;28;20277;-59
2022/02/12 02:48:12;;;;;;;3.23;2.50;;;0.40;99.90;;;;;;5057563;28;20315;-57
2022/02/12 02:56:12;;;;;;;3.30;3.00;;;0.20;99.90;;;;;;5050722;28;20185;-57
2022/02/12 02:58:43;;;;;;;5.95;3.47;;;0.20;99.90;;;;;;5051647;28;20186;-56
2022/02/12 03:01:17;;;;;;;4.07;2.60;;;0.10;99.90;;;;;;5049851;28;20535;-55
2022/02/12 03:03:45;;;;;;;5.22;2.65;;;0.00;99.90;;;;;;5060451;28;20288;-59
2022/02/12 03:06:12;;;;;;;4.95;2.90;;;0.00;99.90;;;;;;5061241;28;20186;-58
2022/02/12 03:08:39;;;;;;;3.72;3.10;;;0.00;99.90;;;;;;5050754;28;20241;-54
2022/02/12 03:11:05;;;;;;;3.95;2.78;;;0.00;99.90;;;;;;5051191;28;21038;-64
2022/02/12 03:13:31;;;;;;;6.07;3.10;;;-0.10;99.90;;;;;;5049008;28;20261;-60
2022/02/12 03:15:57;;;;;;;7.15;3.92;;;-0.10;99.90;;;;;;5050311;28;20183;-59
2022/02/12 03:18:23;;;;;;;5.07;3.27;;;-0.20;99.90;;;;;;5056904;28;20204;-54
2022/02/12 03:20:49;;;;;;;4.10;3.20;;;-0.20;99.90;;;;;;5055207;28;20648;-59
2022/02/12 03:23:14;;;;;;;6.33;3.00;;;-0.20;99.90;;;;;;5055959;28;20636;-56
2022/02/12 03:25:40;;;;;;;9.10;3.40;;;-0.30;99.90;;;;;;5057201;28;20224;-58
2022/02/12 03:28:06;;;;;;;5.00;3.27;;;-0.30;99.90;;;;;;5053671;28;20190;-56
2022/02/12 03:30:34;;;;;;;7.35;3.38;;;-0.40;99.90;;;;;;5049674;28;20204;-57
2022/02/12 03:33:00;;;;;;;6.25;3.00;;;-0.30;99.90;;;;;;5050624;28;20555;-57
2022/02/12 03:35:28;;;;;;;6.73;3.53;;;-0.30;99.90;;;;;;5051345;28;20186;-56
2022/02/12 03:38:12;;;;;;;8.45;3.40;;;-0.20;99.90;;;;;;5063145;28;20465;-58
2022/02/12 03:40:43;;;;;;;4.85;2.97;;;-0.30;99.90;;;;;;5053774;28;20217;-55
2022/02/12 03:43:10;;;;;;;6.50;3.20;;;-0.30;99.90;;;;;;5061224;28;20174;-57
2022/02/12 03:45:37;;;;;;;5.50;3.20;;;-0.40;99.90;;;;;;5048642;28;20182;-57
2022/02/12 03:48:03;;;;;;;5.45;2.97;;;-0.40;99.90;;;;;;5050378;28;20170;-57
2022/02/12 03:50:31;;;;;;;5.50;2.97;;;-0.40;99.90;;;;;;5050061;28;20649;-59
2022/02/12 03:52:57;;;;;;;3.88;3.45;;;-0.40;99.90;;;;;;5050071;28;20668;-58
2022/02/12 03:55:22;;;;;;;7.93;3.80;;;-0.40;99.90;;;;;;5048996;28;20171;-57
2022/02/12 03:57:48;;;;;;;7.00;4.37;;;-0.40;99.90;;;;;;5050175;28;20216;-58
2022/02/12 04:00:14;;;;;;;6.30;4.00;;;-0.40;99.90;;;;;;5050377;28;20496;-58
2022/02/12 04:02:41;;;;;;;7.45;3.55;;;-0.40;99.90;;;;;;5049728;28;20635;-57
2022/02/12 04:05:11;;;;;;;5.60;3.63;;;-0.40;99.90;;;;;;5050282;28;20184;-58
2022/02/12 04:07:40;;;;;;;5.85;3.30;;;-0.40;99.90;;;;;;5049879;28;20253;-57
2022/02/12 04:10:08;;;;;;;5.30;3.45;;;-0.50;99.90;;;;;;5050118;28;20525;-54
2022/02/12 04:12:35;;;;;;;5.95;3.30;;;-0.60;99.90;;;;;;5049786;28;20182;-58
2022/02/12 04:15:01;;;;;;;5.93;3.28;;;-0.70;99.90;;;;;;5048826;28;20510;-56
2022/02/12 04:17:27;;;;;;;6.67;4.10;;;-0.60;99.90;;;;;;5050048;28;20214;-57
2022/02/12 04:19:52;;;;;;;8.73;3.65;;;-0.60;99.90;;;;;;5050021;28;20417;-57
2022/02/12 04:22:18;;;;;;;7.57;3.60;;;-0.70;99.90;;;;;;5049249;28;20251;-57
2022/02/12 04:24:44;;;;;;;6.33;3.30;;;-0.70;99.90;;;;;;5048785;28;20182;-56
2022/02/12 04:27:09;;;;;;;7.67;4.07;;;-0.70;99.90;;;;;;5051634;28;20179;-58
2022/02/12 04:29:35;;;;;;;5.40;3.63;;;-0.80;99.90;;;;;;5059809;28;20265;-58
2022/02/12 04:32:00;;;;;;;6.47;3.93;;;-0.80;99.90;;;;;;5059862;28;20633;-60
2022/02/12 04:34:26;;;;;;;7.47;4.23;;;-0.80;99.90;;;;;;5056618;28;20192;-58
2022/02/12 04:36:53;;;;;;;7.50;3.90;;;-0.90;99.90;;;;;;5049342;28;20260;-59
2022/02/12 04:39:19;;;;;;;5.78;3.90;;;-0.80;99.90;;;;;;5052269;28;20264;-58
2022/02/12 04:41:45;;;;;;;5.30;3.97;;;-0.80;99.90;;;;;;5067002;28;20283;-52
2022/02/12 04:44:11;;;;;;;4.13;3.63;;;-0.80;99.90;;;;;;5048926;28;20596;-59
2022/02/12 04:46:38;;;;;;;6.47;3.97;;;-0.90;99.90;;;;;;5059602;28;20174;-58
2022/02/12 04:49:05;;;;;;;5.57;3.60;;;-0.90;99.90;;;;;;5051597;28;20656;-57
2022/02/12 04:51:30;;;;;;;8.00;4.57;;;-1.00;99.90;;;;;;5048285;28;20177;-57
2022/02/12 04:53:58;;;;;;;5.87;3.70;;;-1.00;99.90;;;;;;5046693;28;20798;-59
2022/02/12 04:56:24;;;;;;;5.03;3.55;;;-1.00;99.90;;;;;;5047505;28;20633;-57
2022/02/12 04:58:51;;;;;;;5.57;4.20;;;-1.10;99.90;;;;;;5068379;28;20198;-53
2022/02/12 05:01:20;;;;;;;6.15;3.90;;;-1.10;99.90;;;;;;5049586;28;20565;-57
2022/02/12 05:03:50;;;;;;;6.55;4.40;;;-1.10;99.90;;;;;;5047634;28;20189;-58
2022/02/12 05:06:17;;;;;;;7.10;4.20;;;-1.10;99.90;;;;;;5046417;28;20514;-58
2022/02/12 05:08:43;;;;;;;5.65;3.20;;;-1.10;99.90;;;;;;5044971;28;20236;-58
2022/02/12 05:11:08;;;;;;;7.63;3.87;;;-1.10;99.90;;;;;;5052822;28;20178;-60
2022/02/12 05:13:34;;;;;;;6.67;4.40;;;-1.00;99.90;;;;;;5063437;28;20194;-58
2022/02/12 05:15:59;;;;;;;5.77;4.47;;;-1.00;99.90;;;;;;5054112;28;20201;-58
2022/02/12 05:18:25;;;;;;;5.20;4.50;;;-1.00;99.90;;;;;;5063298;28;20222;-58
2022/02/12 05:20:50;;;;;;;7.87;5.63;;;-0.90;99.90;;;;;;5051170;28;20266;-58
2022/02/12 05:23:16;;;;;;;9.50;4.97;;;-0.90;99.90;;;;;;5059691;28;20612;-58
2022/02/12 05:25:41;;;;;;;9.60;5.30;;;-0.90;99.90;;;;;;5055072;28;20266;-57
2022/02/12 05:28:07;;;;;;;9.27;5.10;;;-1.00;99.90;;;;;;5048563;28;20188;-57
2022/02/12 05:30:33;;;;;;;9.07;5.13;;;-1.00;99.90;;;;;;5057084;28;20177;-57
2022/02/12 05:32:59;;;;;;;10.97;4.77;;;-1.10;99.90;;;;;;5053815;28;20186;-55
2022/02/12 05:35:25;;;;;;;9.50;4.90;;;-1.10;99.90;;;;;;5049118;28;20429;-56
2022/02/12 05:37:50;;;;;;;8.25;5.25;;;-1.10;99.90;;;;;;5048939;28;20537;-55
2022/02/12 05:40:16;;;;;;;8.60;4.90;;;-1.20;99.90;;;;;;5061712;28;20194;-58
2022/02/12 05:42:42;;;;;;;5.80;4.40;;;-1.20;99.90;;;;;;5060292;28;20186;-59
2022/02/12 05:45:08;;;;;;;8.00;5.50;;;-1.20;99.90;;;;;;5070600;28;20193;-56
2022/02/12 05:47:38;;;;;;;7.50;4.60;;;-1.20;99.90;;;;;;5054494;28;20187;-56
2022/02/12 05:50:04;;;;;;;6.85;5.25;;;-1.20;99.90;;;;;;5062392;28;20279;-57
2022/02/12 05:52:29;;;;;;;6.90;4.30;;;-1.20;99.90;;;;;;5056046;28;20230;-59
2022/02/12 05:54:55;;;;;;;8.50;5.20;;;-1.20;99.90;;;;;;5052804;28;20490;-56
2022/02/12 05:57:20;;;;;;;11.57;5.30;;;-1.20;99.90;;;;;;5065112;28;20209;-59
2022/02/12 05:59:46;;;;;;;7.33;4.83;;;-1.30;99.90;;;;;;5062024;28;20202;-59
2022/02/12 06:02:12;;;;;;;9.32;5.13;;;-1.20;99.90;;;;;;5051010;28;20540;-57
2022/02/12 06:04:38;;;;;;;6.73;4.90;;;-1.20;99.90;;;;;;5060456;28;20182;-55
2022/02/12 06:07:03;;;;;;;7.60;5.03;;;-1.20;99.90;;;;;;5055043;28;20239;-58
2022/02/12 06:09:29;;;;;;;16.47;6.47;;;-1.20;99.90;;;;;;5061950;28;20193;-58
2022/02/12 06:11:55;;;;;;;8.20;5.47;;;-1.20;99.90;;;;;;5051604;28;20603;-60
2022/02/12 06:14:20;;;;;;;11.47;6.13;;;-1.30;99.90;;;;;;5053590;28;20190;-60
2022/02/12 06:16:46;;;;;;;15.07;11.97;;;-1.40;99.90;;;;;;5055636;28;20274;-58
2022/02/12 06:19:11;;;;;;;12.37;7.90;;;-1.30;99.90;;;;;;5052501;28;20243;-59
2022/02/12 06:21:37;;;;;;;12.60;7.37;;;-1.40;99.90;;;;;;5051234;28;20178;-59
2022/02/12 06:24:03;;;;;;;11.00;6.27;;;-1.40;99.90;;;;;;5052988;28;20174;-58
2022/02/12 06:26:28;;;;;;;11.93;6.03;;;-1.40;99.90;;;;;;5052286;28;20187;-58
2022/02/12 06:28:54;;;;;;;8.80;5.80;;;-1.30;99.90;;;;;;5053059;28;20428;-58
2022/02/12 06:31:19;;;;;;;11.60;6.53;;;-1.30;99.90;;;;;;5052228;28;20177;-57
2022/02/12 06:33:45;;;;;;;16.10;12.73;;;-1.30;99.90;;;;;;5055141;28;20193;-58
2022/02/12 06:36:11;;;;;;;9.23;7.43;;;-1.30;99.90;;;;;;5054136;28;20276;-60
2022/02/12 06:38:37;;;;;;;11.07;7.38;;;-1.30;99.90;;;;;;5063319;28;20198;-58
2022/02/12 06:41:02;;;;;;;10.20;6.47;;;-1.30;99.90;;;;;;5050938;28;20260;-57
2022/02/12 06:43:28;;;;;;;12.53;6.60;;;-1.30;99.90;;;;;;5050967;28;20190;-60
2022/02/12 06:45:53;;;;;;;11.80;7.57;;;-1.30;99.90;;;;;;5052377;28;20194;-59
2022/02/12 06:48:19;;;;;;;10.00;6.50;;;-1.20;99.90;;;;;;5060168;28;20189;-59
2022/02/12 06:50:45;;;;;;;12.80;7.17;;;-1.30;99.90;;;;;;5051644;28;20187;-60
2022/02/12 06:53:11;;;;;;;14.55;7.40;;;-1.30;99.90;;;;;;5048800;28;20257;-59
2022/02/12 06:55:36;;;;;;;11.80;6.67;;;-1.20;99.90;;;;;;5059909;28;20206;-58
2022/02/12 06:58:02;;;;;;;11.53;7.00;;;-1.20;99.90;;;;;;5054926;28;20210;-58
2022/02/12 07:00:29;;;;;;;11.13;7.20;;;-1.10;99.90;;;;;;5051420;28;20186;-57
2022/02/12 07:02:54;;;;;;;10.82;7.10;;;-1.10;99.90;;;;;;5053718;28;20179;-58
2022/02/12 07:05:20;;;;;;;14.03;8.23;;;-1.10;99.90;;;;;;5055325;28;20181;-56
2022/02/12 07:07:48;;;;;;;10.70;6.53;;;-1.00;99.90;;;;;;5048177;28;20194;-57
2022/02/12 07:10:14;;;;;;;13.10;8.25;;;-0.90;99.90;;;;;;5050692;28;20182;-59
2022/02/12 07:12:40;;;;;;;14.00;7.50;;;-0.90;99.90;;;;;;5049441;28;20554;-58
2022/02/12 07:15:06;;;;;;;13.35;7.30;;;-0.90;99.90;;;;;;5050391;28;20190;-56
2022/02/12 07:17:31;;;;;;;12.65;7.05;;;-0.80;99.90;;;;;;5063426;28;20554;-57
2022/02/12 07:19:57;;;;;;;13.37;7.87;;;-0.80;99.90;;;;;;5050573;28;20202;-59
2022/02/12 07:22:26;;;;;;;9.97;6.93;;;-0.70;99.90;;;;;;5052344;28;20231;-57
2022/02/12 07:24:52;;;;;;;12.25;7.57;;;-0.70;99.90;;;;;;5050802;28;20182;-55
2022/02/12 07:27:18;;;;;;;11.68;6.93;;;-0.60;99.90;;;;;;5045148;28;20181;-59
2022/02/12 07:29:44;;;;;;;13.77;7.32;;;-0.60;99.90;;;;;;5048592;28;20190;-60
2022/02/12 07:32:10;;;;;;;10.27;6.83;;;-0.60;99.90;;;;;;5046728;28;20290;-60
2022/02/12 07:34:35;;;;;;;12.20;7.03;;;-0.50;99.90;;;;;;5050432;28;20468;-57
2022/02/12 07:37:01;;;;;;;12.13;7.23;;;-0.40;99.90;;;;;;5045547;28;20209;-59
2022/02/12 07:39:27;;;;;;;9.57;6.27;;;-0.30;99.90;;;;;;5057658;28;20656;-58
2022/02/12 07:41:53;;;;;;;15.43;8.57;;;-0.30;99.90;;;;;;5057040;28;20166;-60
2022/02/12 07:44:19;;;;;;;13.60;8.23;;;-0.30;99.90;;;;;;5057725;28;21003;-57
2022/02/12 07:46:44;;;;;;;15.00;7.63;;;-0.20;99.90;;;;;;5055575;28;20185;-59
2022/02/12 07:49:10;;;;;;;13.50;7.83;;;-0.10;99.90;;;;;;5060578;28;20635;-59
2022/02/12 07:51:35;;;;;;;13.13;8.73;;;-0.10;99.90;;;;;;5042268;28;20269;-59
2022/02/12 07:54:03;;;;;;;12.30;7.60;;;0.00;99.90;;;;;;5057296;28;20330;-58
2022/02/12 07:56:29;;;;;;;14.75;7.43;;;0.10;99.90;;;;;;5049547;28;21315;-56
2022/02/12 07:58:55;;;;;;;11.82;8.13;;;0.10;99.90;;;;;;5041680;28;20934;-60
2022/02/12 08:01:20;;;;;;;10.77;7.53;;;0.20;99.90;;;;;;5044580;28;20190;-58
2022/02/12 08:03:46;;;;;;;14.40;7.07;;;0.40;99.90;;;;;;5048516;28;20196;-57
2022/02/12 08:08:56;;;;;;;13.05;7.63;;;0.70;99.90;;;;;;5041103;28;20242;-58
2022/02/12 08:11:26;;;;;;;30.33;10.27;;;1.00;99.90;;;;;;5042166;28;20186;-59
2022/02/12 08:13:52;;;;;;;38.13;10.82;;;1.60;99.90;;;;;;5044147;28;20206;-54
2022/02/12 08:16:18;;;;;;;14.43;7.28;;;2.30;99.90;;;;;;5046108;28;20189;-54
2022/02/12 08:18:44;;;;;;;16.33;8.57;;;3.10;99.90;;;;;;5052242;28;20224;-54
2022/02/12 08:21:10;;;;;;;11.47;7.40;;;3.50;99.90;;;;;;5040270;28;20190;-59
2022/02/12 08:23:36;;;;;;;11.93;7.50;;;3.40;99.90;;;;;;5042233;28;20844;-59
2022/02/12 08:26:02;;;;;;;9.83;7.00;;;3.80;99.90;;;;;;5040246;28;20440;-58
2022/02/12 08:28:27;;;;;;;9.48;6.40;;;4.20;99.90;;;;;;5042967;28;20578;-59
2022/02/12 08:30:54;;;;;;;10.13;5.60;;;4.30;99.90;;;;;;5042386;28;20186;-58
2022/02/12 08:33:20;;;;;;;7.10;5.43;;;4.80;99.90;;;;;;5041174;28;20549;-58
2022/02/12 08:35:46;;;;;;;6.43;4.53;;;5.50;99.90;;;;;;5041314;28;20194;-59
2022/02/12 08:38:11;;;;;;;6.97;4.50;;;6.10;99.90;;;;;;5040836;28;20205;-59
2022/02/12 08:40:37;;;;;;;7.37;5.90;;;6.80;99.90;;;;;;5052108;28;20930;-60
2022/02/12 08:43:03;;;;;;;6.53;5.20;;;7.40;99.90;;;;;;5041299;28;20182;-56
2022/02/12 08:45:29;;;;;;;8.10;5.77;;;7.90;99.90;;;;;;5060846;28;21567;-59
2022/02/12 08:47:54;;;;;;;7.37;5.90;;;8.10;99.90;;;;;;5043971;28;20543;-59
2022/02/12 08:50:20;;;;;;;6.60;5.40;;;8.40;99.90;;;;;;5042043;28;21222;-59
2022/02/12 08:52:47;;;;;;;5.67;4.70;;;8.80;97.70;;;;;;5040933;28;20889;-56
2022/02/12 08:55:13;;;;;;;6.90;6.10;;;9.40;97.10;;;;;;5041333;28;20244;-53
2022/02/12 08:57:39;;;;;;;6.97;6.13;;;9.70;94.40;;;;;;5039742;28;20926;-60
2022/02/12 09:00:07;;;;;;;6.33;5.77;;;9.40;93.50;;;;;;5041743;28;20280;-53
2022/02/12 09:02:33;;;;;;;6.80;6.20;;;9.20;92.70;;;;;;5041994;28;20435;-60
2022/02/12 09:04:59;;;;;;;7.27;6.17;;;9.40;92.10;;;;;;5041593;28;20508;-58
2022/02/12 09:07:24;;;;;;;7.50;6.80;;;10.20;92.50;;;;;;5047576;28;20231;-58
2022/02/12 09:09:50;;;;;;;6.83;5.80;;;10.10;88.00;;;;;;5047499;28;20196;-58
2022/02/12 09:12:16;;;;;;;7.00;6.40;;;10.50;86.30;;;;;;5052089;28;20333;-59
2022/02/12 09:14:42;;;;;;;7.20;6.00;;;11.10;83.40;;;;;;5041471;28;20197;-59
2022/02/12 09:17:08;;;;;;;6.93;6.23;;;11.60;82.60;;;;;;5054821;28;20465;-58
2022/02/12 09:19:34;;;;;;;7.20;6.50;;;12.30;77.50;;;;;;5054339;28;20182;-58
2022/02/12 09:22:00;;;;;;;8.40;7.60;;;12.30;75.40;;;;;;5054130;28;20640;-55
2022/02/12 09:24:26;;;;;;;7.00;6.30;;;12.50;73.50;;;;;;5052440;28;20424;-58
2022/02/12 09:26:51;;;;;;;8.83;6.90;;;12.70;70.90;;;;;;5071558;28;20423;-58
2022/02/12 09:29:17;;;;;;;7.37;6.70;;;13.30;68.70;;;;;;5056859;28;20546;-58
2022/02/12 09:31:42;;;;;;;7.00;6.17;;;13.80;63.60;;;;;;5069233;28;20194;-58
2022/02/12 09:34:08;;;;;;;7.60;6.90;;;14.10;63.60;;;;;;5050823;28;20186;-58
2022/02/12 09:36:34;;;;;;;8.00;7.20;;;13.60;60.10;;;;;;5050887;28;20178;-59
2022/02/12 09:38:59;;;;;;;7.20;6.60;;;12.80;60.50;;;;;;5051171;28;20597;-59
2022/02/12 09:41:27;;;;;;;8.00;7.20;;;13.30;60.00;;;;;;5070862;28;20628;-59
2022/02/12 09:43:54;;;;;;;7.70;6.90;;;12.60;61.70;;;;;;5058851;28;20513;-57
2022/02/12 09:46:29;;;;;;;7.83;7.07;;;13.10;64.10;;;;;;5051927;28;20528;-60
2022/02/12 09:48:56;;;;;;;8.10;7.30;;;13.40;60.70;;;;;;5064298;28;21158;-62
2022/02/12 09:51:27;;;;;;;8.30;7.50;;;13.80;60.70;;;;;;5056408;28;20445;-59
2022/02/12 09:53:53;;;;;;;6.60;6.00;;;13.50;58.70;;;;;;5056908;28;20567;-59
2022/02/12 09:56:19;;;;;;;7.73;7.00;;;13.50;58.30;;;;;;5056854;28;20539;-58
2022/02/12 09:58:45;;;;;;;6.90;6.30;;;14.40;57.40;;;;;;5070939;28;20556;-58
2022/02/12 10:01:10;;;;;;;7.50;6.50;;;14.50;56.60;;;;;;5070116;28;20197;-57
2022/02/12 10:03:39;;;;;;;7.80;7.10;;;14.40;55.70;;;;;;5072691;28;20416;-58
2022/02/12 10:06:05;;;;;;;7.20;6.60;;;14.10;56.50;;;;;;5060874;28;20209;-58
2022/02/12 10:08:31;;;;;;;7.27;6.67;;;14.30;56.20;;;;;;5063306;28;20438;-56
2022/02/12 10:10:57;;;;;;;6.70;6.10;;;14.30;53.90;;;;;;5070072;28;20456;-57
2022/02/12 10:13:22;;;;;;;5.50;5.03;;;14.20;54.10;;;;;;5063899;28;20510;-57
2022/02/12 10:15:55;;;;;;;5.13;4.73;;;14.70;50.10;;;;;;5055480;28;20198;-57
2022/02/12 10:18:21;;;;;;;5.97;5.47;;;14.70;50.20;;;;;;5047838;28;20220;-58
2022/02/12 10:20:48;;;;;;;6.57;6.07;;;15.30;50.10;;;;;;5047260;28;20420;-57
2022/02/12 10:23:16;;;;;;;5.80;5.30;;;15.50;48.50;;;;;;5071262;28;20933;-59
2022/02/12 10:25:44;;;;;;;5.27;4.80;;;15.70;48.60;;;;;;5072342;28;20473;-58
2022/02/12 10:28:11;;;;;;;5.53;5.13;;;16.00;45.80;;;;;;5053012;28;20494;-59
2022/02/12 10:30:38;;;;;;;5.43;4.93;;;15.80;47.40;;;;;;5054020;28;20435;-59
2022/02/12 10:33:06;;;;;;;4.97;4.60;;;15.30;48.80;;;;;;5071684;28;20434;-56
2022/02/12 10:35:32;;;;;;;5.27;4.87;;;15.70;45.40;;;;;;5056435;28;20445;-58
2022/02/12 10:38:00;;;;;;;6.00;5.40;;;15.40;45.30;;;;;;5059753;28;20475;-56
2022/02/12 10:40:26;;;;;;;5.70;5.20;;;15.60;46.40;;;;;;5051147;28;20435;-59
2022/02/12 10:42:53;;;;;;;5.30;4.90;;;15.80;44.70;;;;;;5064970;28;20432;-58
2022/02/12 10:45:19;;;;;;;6.53;5.93;;;15.70;47.80;;;;;;5051385;28;20925;-58
2022/02/12 10:47:46;;;;;;;6.50;5.00;;;15.80;43.30;;;;;;5064817;28;20890;-52
2022/02/12 10:50:13;;;;;;;6.00;5.50;;;16.70;44.30;;;;;;5055982;28;20444;-58
2022/02/12 10:52:50;;;;;;;6.03;5.53;;;17.10;41.60;;;;;;5056043;28;20873;-58
2022/02/12 10:55:37;;;;;;;5.87;5.37;;;16.50;42.90;;;;;;5071834;28;20454;-56
2022/02/12 10:58:11;;;;;;;6.07;5.53;;;15.80;41.10;;;;;;5049096;28;20456;-59
2022/02/12 11:00:39;;;;;;;6.67;6.10;;;15.90;41.90;;;;;;5049565;28;20423;-57
2022/02/12 11:03:12;;;;;;;5.80;5.40;;;15.60;40.10;;;;;;5060012;28;20419;-60
2022/02/12 11:05:40;;;;;;;6.37;5.77;;;15.50;41.30;;;;;;5068646;28;20416;-58
2022/02/12 11:08:07;;;;;;;7.40;6.80;;;15.50;43.70;;;;;;5060515;28;20428;-58
2022/02/12 11:10:34;;;;;;;7.00;6.30;;;15.90;43.00;;;;;;5047455;28;20443;-58
2022/02/12 11:13:01;;;;;;;7.43;6.80;;;16.10;43.10;;;;;;5059581;28;20428;-58
2022/02/12 11:15:29;;;;;;;6.27;5.77;;;16.60;39.70;;;;;;5060013;28;20543;-56
2022/02/12 11:17:56;;;;;;;7.57;6.97;;;17.00;40.70;;;;;;5059637;28;20460;-58
2022/02/12 11:20:22;;;;;;;6.60;6.20;;;17.30;37.80;;;;;;5055323;28;20433;-57
2022/02/12 11:22:50;;;;;;;8.20;7.50;;;17.20;40.30;;;;;;5057315;28;20463;-53
2022/02/12 11:25:39;;;;;;;7.67;7.00;;;16.90;42.40;;;;;;5050522;28;20483;-58
2022/02/12 11:28:10;;;;;;;6.53;6.13;;;16.90;40.80;;;;;;5065645;28;20424;-55
2022/02/12 11:30:38;;;;;;;7.23;6.73;;;16.80;38.80;;;;;;5042769;28;20954;-57
2022/02/12 11:33:21;;;;;;;6.80;6.20;;;16.40;40.20;;;;;;5067330;28;20495;-54
2022/02/12 11:36:18;;;;;;;7.63;7.03;;;16.70;41.00;;;;;;5047381;28;20456;-57
2022/02/12 11:38:44;;;;;;;6.73;6.23;;;16.50;40.80;;;;;;5069612;28;20486;-57
2022/02/12 11:41:22;;;;;;;7.63;7.03;;;17.10;40.20;;;;;;5069019;28;20902;-57
2022/02/12 11:43:49;;;;;;;8.30;7.70;;;17.70;38.70;;;;;;5069869;28;21001;-59
2022/02/12 11:46:34;;;;;;;8.70;8.10;;;17.40;38.20;;;;;;5057888;28;20540;-56
2022/02/12 11:49:35;;;;;;;8.30;7.63;;;17.00;38.30;;;;;;5048674;28;20486;-58
2022/02/12 11:52:21;;;;;;;7.73;7.13;;;17.40;38.90;;;;;;5048225;28;20457;-59
2022/02/12 11:54:57;;;;;;;8.60;7.90;;;17.30;39.10;;;;;;5036027;28;20434;-56
2022/02/12 11:57:25;;;;;;;7.33;6.67;;;17.00;38.90;;;;;;5055216;28;21009;-58
2022/02/12 12:00:11;;;;;;;8.37;7.77;;;17.40;39.00;;;;;;5070492;28;20423;-57
2022/02/12 12:02:51;;;;;;;7.67;7.07;;;17.80;36.70;;;;;;5049130;28;20926;-57
2022/02/12 12:05:24;;;;;;;7.87;7.37;;;17.40;38.20;;;;;;5050275;28;20997;-58
2022/02/12 12:08:10;;;;;;;8.50;7.90;;;17.80;37.60;;;;;;5063422;28;20428;-57
2022/02/12 12:10:48;;;;;;;9.50;8.70;;;18.70;35.70;;;;;;5061384;28;20878;-57
2022/02/12 12:13:14;;;;;;;10.87;9.97;;;18.40;34.80;;;;;;5063298;28;20435;-56
2022/02/12 12:15:54;;;;;;;9.57;8.97;;;17.90;35.70;;;;;;5061091;28;21131;-52
2022/02/12 12:18:21;;;;;;;8.03;7.53;;;17.20;34.70;;;;;;5044901;28;20205;-55
2022/02/12 12:20:47;;;;;;;9.50;8.90;;;17.90;35.40;;;;;;5069999;28;20503;-58
2022/02/12 12:23:14;;;;;;;9.50;8.90;;;16.70;33.40;;;;;;5062381;28;20499;-56
2022/02/12 12:26:12;;;;;;;8.20;7.70;;;16.80;35.40;;;;;;5062409;28;20189;-55
2022/02/12 12:30:43;;;;;;;8.47;7.97;;;17.70;34.50;;;;;;5026855;28;20958;-54
2022/02/12 12:31:31;;;;;;;8.53;7.83;;;17.50;34.30;;;;;;5050091;28;20766;-55
2022/02/12 12:34:06;;;;;;;9.43;8.73;;;17.40;35.40;;;;;;5058088;28;20434;-57
2022/02/12 12:36:37;;;;;;;9.10;8.50;;;17.20;37.30;;;;;;5070060;28;20417;-57
2022/02/12 12:39:09;;;;;;;9.40;8.77;;;17.60;36.90;;;;;;5056808;28;20493;-57
2022/02/12 12:41:37;;;;;;;9.83;9.13;;;17.80;36.80;;;;;;5054467;28;20444;-57
2022/02/12 12:44:16;;;;;;;9.30;8.70;;;17.10;34.10;;;;;;5057681;28;20432;-55
2022/02/12 12:46:49;;;;;;;8.87;8.27;;;16.40;36.40;;;;;;5062437;28;20507;-57
2022/02/12 12:49:30;;;;;;;9.20;8.60;;;16.90;36.30;;;;;;5060436;28;20459;-57
2022/02/12 12:51:57;;;;;;;8.80;8.30;;;17.10;36.40;;;;;;5066388;28;20408;-59
2022/02/12 12:54:27;;;;;;;9.10;8.60;;;16.90;36.80;;;;;;5052442;28;20460;-58
2022/02/12 12:56:53;;;;;;;8.70;8.20;;;17.40;37.80;;;;;;5058377;28;20481;-55